createdAt,value
2022-09-28T00:01:46.373Z,16.74
2022-09-28T00:04:13.559Z,16.70
2022-09-28T00:06:40.786Z,16.71
2022-09-28T00:09:07.932Z,16.70
2022-09-28T00:11:35.257Z,16.69
2022-09-28T00:14:03.708Z,16.71
2022-09-28T00:16:33.876Z,16.74
2022-09-28T00:19:01.660Z,16.72
2022-09-28T00:21:30.586Z,16.71
2022-09-28T00:24:19.229Z,16.71
2022-09-28T00:26:49.657Z,16.67
2022-09-28T00:29:20.791Z,16.65
2022-09-28T00:31:52.633Z,16.62
2022-09-28T00:34:20.842Z,16.59
2022-09-28T00:36:48.712Z,16.55
2022-09-28T00:39:16.712Z,16.53
2022-09-28T00:41:44.428Z,16.48
2022-09-28T00:44:38.123Z,16.42
2022-09-28T00:47:49.612Z,16.37
2022-09-28T00:50:29.962Z,16.29
2022-09-28T00:53:04.429Z,16.23
2022-09-28T00:55:37.628Z,16.20
2022-09-28T00:58:08.891Z,16.16
2022-09-28T01:00:36.368Z,16.12
2022-09-28T01:03:04.241Z,16.10
2022-09-28T01:05:33.892Z,16.08
2022-09-28T01:08:02.498Z,16.09
2022-09-28T01:10:31.262Z,16.06
2022-09-28T01:12:59.341Z,16.06
2022-09-28T01:15:28.844Z,16.09
2022-09-28T01:18:07.366Z,16.08
2022-09-28T01:20:54.576Z,16.08
2022-09-28T01:23:54.055Z,16.07
2022-09-28T01:26:46.624Z,16.07
2022-09-28T01:29:22.190Z,16.02
2022-09-28T01:31:55.282Z,15.99
2022-09-28T01:34:28.828Z,15.96
2022-09-28T01:37:00.656Z,15.95
2022-09-28T01:39:33.080Z,15.94
2022-09-28T01:42:05.726Z,15.91
2022-09-28T01:44:39.913Z,15.89
2022-09-28T01:47:10.857Z,15.83
2022-09-28T01:49:42.780Z,15.80
2022-09-28T01:52:15.882Z,15.81
2022-09-28T01:54:47.493Z,15.82
2022-09-28T01:57:20.254Z,15.78
2022-09-28T01:59:53.400Z,15.74
2022-09-28T02:02:27.063Z,15.70
2022-09-28T02:04:57.725Z,15.66
2022-09-28T02:07:31.384Z,15.67
2022-09-28T02:10:03.151Z,15.68
2022-09-28T02:12:36.049Z,15.66
2022-09-28T02:15:12.715Z,15.67
2022-09-28T02:17:40.660Z,15.70
2022-09-28T02:20:09.073Z,15.70
2022-09-28T02:22:40.741Z,15.69
2022-09-28T02:25:11.332Z,15.68
2022-09-28T02:27:45.554Z,15.67
2022-09-28T02:30:13.306Z,15.66
2022-09-28T02:32:44.216Z,15.62
2022-09-28T02:35:16.493Z,15.60
2022-09-28T02:37:45.862Z,15.61
2022-09-28T02:40:14.885Z,15.58
2022-09-28T02:42:54.218Z,15.48
2022-09-28T02:45:37.791Z,15.38
2022-09-28T02:48:31.465Z,15.36
2022-09-28T02:51:17.945Z,15.38
2022-09-28T02:54:16.683Z,15.38
2022-09-28T02:57:04.442Z,15.38
2022-09-28T02:59:43.896Z,15.37
2022-09-28T03:02:21.265Z,15.37
2022-09-28T03:05:01.321Z,15.36
2022-09-28T03:07:35.573Z,15.32
2022-09-28T03:10:08.985Z,15.27
2022-09-28T03:12:38.421Z,15.24
2022-09-28T03:15:20.387Z,15.20
2022-09-28T03:17:47.894Z,15.14
2022-09-28T03:20:15.698Z,15.10
2022-09-28T03:22:48.797Z,15.06
2022-09-28T03:25:23.295Z,15.02
2022-09-28T03:27:50.508Z,14.96
2022-09-28T03:30:19.237Z,14.93
2022-09-28T03:32:47.375Z,14.88
2022-09-28T03:35:14.715Z,14.80
2022-09-28T03:37:42.571Z,14.74
2022-09-28T03:40:10.444Z,14.69
2022-09-28T03:42:37.916Z,14.64
2022-09-28T03:45:06.384Z,14.59
2022-09-28T03:47:35.156Z,14.56
2022-09-28T03:50:02.595Z,14.52
2022-09-28T03:52:29.803Z,14.47
2022-09-28T03:54:56.941Z,14.48
2022-09-28T03:57:24.525Z,14.49
2022-09-28T03:59:51.642Z,14.49
2022-09-28T04:02:18.824Z,14.50
2022-09-28T04:04:47.736Z,14.49
2022-09-28T04:07:15.033Z,14.47
2022-09-28T04:09:44.180Z,14.45
2022-09-28T04:12:11.660Z,14.44
2022-09-28T04:14:38.770Z,14.46
2022-09-28T04:17:07.212Z,14.46
2022-09-28T04:19:34.704Z,14.47
2022-09-28T04:22:12.833Z,14.49
2022-09-28T04:24:42.189Z,14.49
2022-09-28T04:27:28.020Z,14.50
2022-09-28T04:29:55.125Z,14.50
2022-09-28T04:32:22.790Z,14.51
2022-09-28T04:34:51.942Z,14.56
2022-09-28T04:37:20.650Z,14.61
2022-09-28T04:39:48.689Z,14.70
2022-09-28T04:42:18.831Z,14.79
2022-09-28T04:44:46.338Z,14.92
2022-09-28T04:47:13.708Z,15.04
2022-09-28T04:49:43.827Z,15.09
2022-09-28T04:52:18.487Z,15.19
2022-09-28T04:54:50.114Z,15.33
2022-09-28T04:57:17.390Z,15.53
2022-09-28T04:59:44.894Z,15.89
2022-09-28T05:02:15.305Z,16.30
2022-09-28T05:04:56.601Z,16.71
2022-09-28T05:07:27.014Z,17.05
2022-09-28T05:09:58.774Z,17.34
2022-09-28T05:12:26.507Z,17.65
2022-09-28T05:14:53.837Z,17.91
2022-09-28T05:17:21.023Z,18.15
2022-09-28T05:20:17.278Z,18.27
2022-09-28T05:22:44.920Z,18.34
2022-09-28T05:25:13.758Z,18.38
2022-09-28T05:28:03.604Z,18.48
2022-09-28T05:30:59.793Z,18.57
2022-09-28T05:33:47.301Z,18.88
2022-09-28T05:36:14.711Z,19.07
2022-09-28T05:38:45.041Z,19.20
2022-09-28T05:41:13.703Z,19.27
2022-09-28T05:43:41.171Z,19.28
2022-09-28T05:46:08.485Z,19.44
2022-09-28T05:48:38.601Z,19.67
2022-09-28T05:51:06.239Z,19.91
2022-09-28T05:53:33.564Z,20.09
2022-09-28T05:56:01.340Z,20.35
2022-09-28T05:58:32.872Z,20.49
2022-09-28T06:01:00.283Z,20.60
2022-09-28T06:03:28.674Z,20.59
2022-09-28T06:05:55.931Z,20.65
2022-09-28T06:08:24.361Z,20.65
2022-09-28T06:11:01.263Z,20.78
2022-09-28T06:13:29.252Z,20.95
2022-09-28T06:15:57.905Z,21.13
2022-09-28T06:18:26.654Z,21.25
2022-09-28T06:21:10.972Z,21.38
2022-09-28T06:23:48.212Z,21.51
2022-09-28T06:26:17.041Z,21.68
2022-09-28T06:28:45.187Z,21.85
2022-09-28T06:31:14.015Z,22.16
2022-09-28T06:33:46.100Z,22.42
2022-09-28T06:36:13.763Z,22.64
2022-09-28T06:38:41.108Z,22.84
2022-09-28T06:41:08.544Z,23.10
2022-09-28T06:43:36.820Z,23.40
2022-09-28T06:46:14.414Z,23.56
2022-09-28T06:48:50.993Z,23.66
2022-09-28T06:51:22.035Z,23.75
2022-09-28T06:54:01.136Z,23.93
2022-09-28T06:56:39.674Z,24.00
2022-09-28T06:59:07.031Z,24.09
2022-09-28T07:01:37.202Z,24.25
2022-09-28T07:04:08.988Z,24.55
2022-09-28T07:06:55.072Z,24.82
2022-09-28T07:09:44.956Z,25.04
2022-09-28T07:12:41.813Z,25.17
2022-09-28T07:15:32.090Z,25.30
2022-09-28T07:18:03.930Z,25.33
2022-09-28T07:20:41.322Z,25.40
2022-09-28T07:26:08.471Z,25.59
2022-09-28T07:28:48.496Z,25.59
2022-09-28T07:31:30.048Z,25.64
2022-09-28T07:34:23.214Z,25.68
2022-09-28T07:37:12.502Z,25.84
2022-09-28T07:39:59.009Z,25.98
2022-09-28T07:42:30.024Z,26.16
2022-09-28T07:44:58.397Z,26.25
2022-09-28T07:47:34.668Z,26.24
2022-09-28T07:50:32.447Z,26.42
2022-09-28T07:53:30.010Z,26.81
2022-09-28T07:56:23.726Z,26.92
2022-09-28T07:59:20.544Z,27.19
2022-09-28T08:02:06.412Z,26.95
2022-09-28T08:04:33.800Z,26.85
2022-09-28T08:07:03.201Z,26.96
2022-09-28T08:09:31.405Z,27.20
2022-09-28T08:12:19.705Z,27.39
2022-09-28T08:15:11.887Z,27.53
2022-09-28T08:17:53.370Z,27.60
2022-09-28T08:20:40.897Z,27.75
2022-09-28T08:23:11.356Z,27.95
2022-09-28T08:25:40.840Z,28.02
2022-09-28T08:28:09.638Z,28.18
2022-09-28T08:30:45.322Z,28.35
2022-09-28T08:33:31.380Z,28.56
2022-09-28T08:36:17.617Z,28.55
2022-09-28T08:39:05.374Z,28.86
2022-09-28T08:41:40.584Z,29.14
2022-09-28T08:44:25.140Z,29.02
2022-09-28T08:47:36.439Z,28.99
2022-09-28T08:50:25.814Z,29.27
2022-09-28T08:53:31.474Z,29.57
2022-09-28T08:56:29.432Z,29.44
2022-09-28T08:59:00.331Z,29.42
2022-09-28T09:01:35.465Z,29.56
2022-09-28T09:04:06.680Z,29.86
2022-09-28T09:06:57.997Z,29.86
2022-09-28T09:09:48.801Z,29.96
2022-09-28T09:12:26.377Z,29.73
2022-09-28T09:15:17.483Z,29.83
2022-09-28T09:18:04.809Z,30.05
2022-09-28T09:20:48.441Z,30.28
2022-09-28T09:23:37.012Z,30.54
2022-09-28T09:26:11.106Z,30.47
2022-09-28T09:29:06.164Z,30.39
2022-09-28T09:31:58.199Z,30.38
2022-09-28T09:34:41.716Z,30.37
2022-09-28T09:37:46.264Z,30.41
2022-09-28T09:40:53.712Z,30.65
2022-09-28T09:44:05.740Z,30.59
2022-09-28T09:47:09.681Z,30.05
2022-09-28T09:49:55.656Z,29.84
2022-09-28T09:52:27.764Z,29.62
2022-09-28T09:54:58.227Z,29.67
2022-09-28T09:57:42.245Z,29.89
2022-09-28T10:00:32.036Z,29.79
2022-09-28T10:03:19.716Z,29.52
2022-09-28T10:05:54.653Z,29.62
2022-09-28T10:08:24.051Z,29.88
2022-09-28T10:10:55.255Z,29.83
2022-09-28T10:13:24.219Z,29.99
2022-09-28T10:15:56.371Z,30.23
2022-09-28T10:18:35.925Z,30.22
2022-09-28T10:21:23.745Z,30.22
2022-09-28T10:23:58.441Z,30.13
2022-09-28T10:26:33.673Z,30.08
2022-09-28T10:29:04.991Z,29.92
2022-09-28T10:31:40.290Z,29.70
2022-09-28T10:34:17.172Z,29.92
2022-09-28T10:36:52.257Z,30.19
2022-09-28T10:39:25.934Z,30.13
2022-09-28T10:41:54.324Z,30.39
2022-09-28T10:44:26.172Z,30.64
2022-09-28T10:47:20.566Z,30.85
2022-09-28T10:49:50.587Z,30.91
2022-09-28T10:52:32.169Z,30.92
2022-09-28T10:54:59.904Z,30.96
2022-09-28T10:57:29.168Z,31.07
2022-09-28T11:00:01.728Z,31.09
2022-09-28T11:02:38.629Z,31.20
2022-09-28T11:05:21.853Z,30.99
2022-09-28T11:07:52.009Z,30.88
2022-09-28T11:10:26.653Z,30.83
2022-09-28T11:12:58.697Z,31.00
2022-09-28T11:15:29.795Z,31.04
2022-09-28T11:18:18.809Z,30.90
2022-09-28T11:20:46.343Z,30.93
2022-09-28T11:23:20.912Z,31.07
2022-09-28T11:26:00.101Z,31.17
2022-09-28T11:28:32.746Z,31.32
2022-09-28T11:31:04.041Z,31.40
2022-09-28T11:34:02.936Z,31.55
2022-09-28T11:37:01.914Z,31.66
2022-09-28T11:39:39.468Z,31.38
2022-09-28T11:42:17.604Z,31.18
2022-09-28T11:44:48.025Z,31.30
2022-09-28T11:47:49.039Z,31.22
2022-09-28T11:50:27.607Z,31.23
2022-09-28T11:53:00.381Z,31.27
2022-09-28T11:55:33.743Z,31.32
2022-09-28T11:58:10.344Z,31.42
2022-09-28T12:00:44.920Z,31.32
2022-09-28T12:03:16.854Z,31.13
2022-09-28T12:05:52.200Z,31.05
2022-09-28T12:08:25.613Z,31.08
2022-09-28T12:11:09.868Z,31.10
2022-09-28T12:13:58.319Z,31.26
2022-09-28T12:17:01.035Z,31.29
2022-09-28T12:19:21.899Z,31.40
2022-09-28T12:21:52.876Z,31.48
2022-09-28T12:24:24.870Z,31.51
2022-09-28T12:26:56.608Z,31.55
2022-09-28T12:29:29.391Z,31.60
2022-09-28T12:32:02.684Z,31.53
2022-09-28T12:34:29.879Z,31.37
2022-09-28T12:37:36.597Z,31.29
2022-09-28T12:40:27.048Z,31.34
2022-09-28T12:43:06.343Z,31.33
2022-09-28T12:46:10.527Z,31.40
2022-09-28T12:52:14.035Z,31.28
2022-09-28T12:55:05.270Z,31.30
2022-09-28T12:57:42.713Z,31.30
2022-09-28T13:00:13.321Z,31.20
2022-09-28T13:03:07.111Z,31.18
2022-09-28T13:05:56.750Z,31.23
2022-09-28T13:08:35.573Z,31.17
2022-09-28T13:11:11.529Z,30.93
2022-09-28T13:13:48.008Z,30.81
2022-09-28T13:16:21.505Z,30.63
2022-09-28T13:18:54.066Z,30.67
2022-09-28T13:21:28.509Z,30.68
2022-09-28T13:24:14.468Z,30.65
2022-09-28T13:26:48.132Z,30.63
2022-09-28T13:29:18.822Z,30.58
2022-09-28T13:31:48.983Z,30.59
2022-09-28T13:34:20.660Z,30.43
2022-09-28T13:37:10.062Z,30.40
2022-09-28T13:39:48.825Z,30.35
2022-09-28T13:42:53.238Z,30.28
2022-09-28T13:45:50.591Z,30.28
2022-09-28T13:48:21.750Z,30.26
2022-09-28T13:51:24.782Z,30.22
2022-09-28T13:54:06.947Z,30.17
2022-09-28T13:56:38.173Z,30.12
2022-09-28T13:59:19.515Z,30.07
2022-09-28T14:01:56.043Z,30.07
2022-09-28T14:04:24.955Z,29.97
2022-09-28T14:06:57.092Z,29.90
2022-09-28T14:09:41.622Z,29.86
2022-09-28T14:12:43.256Z,29.70
2022-09-28T14:15:43.960Z,29.59
2022-09-28T14:18:20.011Z,29.49
2022-09-28T14:20:57.015Z,29.42
2022-09-28T14:23:59.106Z,29.34
2022-09-28T14:26:48.147Z,29.33
2022-09-28T14:29:29.821Z,29.26
2022-09-28T14:32:05.125Z,29.25
2022-09-28T14:34:36.252Z,29.08
2022-09-28T14:37:24.751Z,29.01
2022-09-28T14:40:10.983Z,28.85
2022-09-28T14:42:40.411Z,28.73
2022-09-28T14:45:33.766Z,28.62
2022-09-28T14:48:13.967Z,28.51
2022-09-28T14:50:41.659Z,28.51
2022-09-28T14:53:14.826Z,28.48
2022-09-28T14:55:50.338Z,28.40
2022-09-28T14:58:23.036Z,28.27
2022-09-28T15:01:00.084Z,28.18
2022-09-28T15:03:32.784Z,28.06
2022-09-28T15:06:01.647Z,27.92
2022-09-28T15:08:39.164Z,27.83
2022-09-28T15:11:11.231Z,27.77
2022-09-28T15:13:40.797Z,27.72
2022-09-28T15:16:12.603Z,27.62
2022-09-28T15:19:04.295Z,27.55
2022-09-28T15:21:33.854Z,27.44
2022-09-28T15:24:01.227Z,27.31
2022-09-28T15:26:31.022Z,27.22
2022-09-28T15:28:58.942Z,27.10
2022-09-28T15:31:28.215Z,26.95
2022-09-28T15:34:15.533Z,26.84
2022-09-28T15:36:46.460Z,26.68
2022-09-28T15:39:16.242Z,26.55
2022-09-28T15:41:46.138Z,26.40
2022-09-28T15:44:32.339Z,26.25
2022-09-28T15:47:09.719Z,26.09
2022-09-28T15:49:41.726Z,25.91
2022-09-28T15:52:23.583Z,25.74
2022-09-28T15:54:51.017Z,25.61
2022-09-28T15:57:37.360Z,25.45
2022-09-28T16:00:07.265Z,25.31
2022-09-28T16:03:00.332Z,25.16
2022-09-28T16:05:37.908Z,24.96
2022-09-28T16:08:13.060Z,24.78
2022-09-28T16:10:54.302Z,24.65
2022-09-28T16:13:24.420Z,24.55
2022-09-28T16:15:58.241Z,24.41
2022-09-28T16:18:33.985Z,24.31
2022-09-28T16:21:29.370Z,24.23
2022-09-28T16:23:57.710Z,24.16
2022-09-28T16:26:32.169Z,24.10
2022-09-28T16:29:00.227Z,24.04
2022-09-28T16:31:33.248Z,23.95
2022-09-28T16:34:11.579Z,23.82
2022-09-28T16:36:45.887Z,23.74
2022-09-28T16:39:13.234Z,23.63
2022-09-28T16:41:44.300Z,23.48
2022-09-28T16:44:17.362Z,23.37
2022-09-28T16:46:45.539Z,23.29
2022-09-28T16:49:19.052Z,23.17
2022-09-28T16:51:48.273Z,23.06
2022-09-28T16:54:36.215Z,22.96
2022-09-28T16:57:06.276Z,22.87
2022-09-28T16:59:33.996Z,22.82
2022-09-28T17:02:01.223Z,22.76
2022-09-28T17:04:28.466Z,22.71
2022-09-28T17:06:58.404Z,22.64
2022-09-28T17:09:25.719Z,22.55
2022-09-28T17:11:56.730Z,22.49
2022-09-28T17:14:24.932Z,22.41
2022-09-28T17:17:08.190Z,22.31
2022-09-28T17:19:37.765Z,22.21
2022-09-28T17:22:08.145Z,22.14
2022-09-28T17:24:35.478Z,22.08
2022-09-28T17:27:03.410Z,22.01
2022-09-28T17:29:30.619Z,21.93
2022-09-28T17:31:57.717Z,21.86
2022-09-28T17:34:25.396Z,21.80
2022-09-28T17:36:52.837Z,21.74
2022-09-28T17:39:21.523Z,21.67
2022-09-28T17:41:51.711Z,21.54
2022-09-28T17:44:20.531Z,21.43
2022-09-28T17:46:49.751Z,21.37
2022-09-28T17:49:18.000Z,21.30
2022-09-28T17:51:45.623Z,21.24
2022-09-28T17:54:20.846Z,21.21
2022-09-28T17:56:49.687Z,21.16
2022-09-28T17:59:19.046Z,21.10
2022-09-28T18:01:46.329Z,21.04
2022-09-28T18:04:33.284Z,20.96
2022-09-28T18:07:02.183Z,20.86
2022-09-28T18:09:29.334Z,20.82
2022-09-28T18:12:01.044Z,20.78
2022-09-28T18:14:28.576Z,20.72
2022-09-28T18:16:55.795Z,20.64
2022-09-28T18:19:23.103Z,20.54
2022-09-28T18:21:50.443Z,20.49
2022-09-28T18:24:17.794Z,20.40
2022-09-28T18:26:45.742Z,20.33
2022-09-28T18:29:14.235Z,20.27
2022-09-28T18:31:41.471Z,20.23
2022-09-28T18:34:08.693Z,20.21
2022-09-28T18:36:35.937Z,20.20
2022-09-28T18:39:03.546Z,20.17
2022-09-28T18:41:30.845Z,20.13
2022-09-28T18:44:01.150Z,20.12
2022-09-28T18:46:36.467Z,20.11
2022-09-28T18:49:04.656Z,20.04
2022-09-28T18:51:31.781Z,19.97
2022-09-28T18:54:00.174Z,19.94
2022-09-28T18:56:27.559Z,19.96
2022-09-28T18:58:54.939Z,19.96
2022-09-28T19:01:30.878Z,19.95
2022-09-28T19:04:02.733Z,19.94
2022-09-28T19:06:31.903Z,19.92
2022-09-28T19:08:59.573Z,19.90
2022-09-28T19:11:28.635Z,19.89
2022-09-28T19:13:56.186Z,19.86
2022-09-28T19:16:25.805Z,19.80
2022-09-28T19:18:53.716Z,19.78
2022-09-28T19:21:23.530Z,19.74
2022-09-28T19:23:52.347Z,19.63
2022-09-28T19:26:23.577Z,19.56
2022-09-28T19:28:50.951Z,19.56
2022-09-28T19:31:18.464Z,19.58
2022-09-28T19:33:46.668Z,19.60
2022-09-28T19:36:17.254Z,19.55
2022-09-28T19:38:46.483Z,19.50
2022-09-28T19:41:39.148Z,19.52
2022-09-28T19:44:13.135Z,19.53
2022-09-28T19:46:40.667Z,19.55
2022-09-28T19:49:09.682Z,19.52
2022-09-28T19:51:46.927Z,19.50
2022-09-28T19:54:36.283Z,19.47
2022-09-28T19:57:07.851Z,19.47
2022-09-28T19:59:35.862Z,19.46
2022-09-28T20:02:03.329Z,19.46
2022-09-28T20:04:30.579Z,19.48
2022-09-28T20:06:58.366Z,19.48
2022-09-28T20:09:26.955Z,19.48
2022-09-28T20:11:54.425Z,19.48
2022-09-28T20:14:24.454Z,19.48
2022-09-28T20:16:53.367Z,19.49
2022-09-28T20:19:21.925Z,19.48
2022-09-28T20:21:51.907Z,19.44
2022-09-28T20:24:19.257Z,19.42
2022-09-28T20:26:49.698Z,19.40
2022-09-28T20:29:17.535Z,19.36
2022-09-28T20:31:45.714Z,19.37
2022-09-28T20:34:13.140Z,19.39
2022-09-28T20:36:42.427Z,19.39
2022-09-28T20:39:11.786Z,19.38
2022-09-28T20:41:39.024Z,19.39
2022-09-28T20:44:08.123Z,19.39
2022-09-28T20:46:35.792Z,19.38
2022-09-28T20:49:03.425Z,19.38
2022-09-28T20:51:30.830Z,19.38
2022-09-28T20:53:58.952Z,19.33
2022-09-28T20:56:27.600Z,19.32
2022-09-28T20:58:55.811Z,19.32
2022-09-28T21:01:26.442Z,19.32
2022-09-28T21:03:55.607Z,19.32
2022-09-28T21:06:24.769Z,19.27
2022-09-28T21:08:52.326Z,19.26
2022-09-28T21:11:22.698Z,19.26
2022-09-28T21:13:53.127Z,19.28
2022-09-28T21:16:20.798Z,19.27
2022-09-28T21:18:49.534Z,19.26
2022-09-28T21:21:19.742Z,19.27
2022-09-28T21:23:47.585Z,19.24
2022-09-28T21:26:19.006Z,19.24
2022-09-28T21:28:46.831Z,19.22
2022-09-28T21:31:14.606Z,19.15
2022-09-28T21:33:41.881Z,19.11
2022-09-28T21:36:10.532Z,19.14
2022-09-28T21:38:38.384Z,19.15
2022-09-28T21:41:05.727Z,19.17
2022-09-28T21:43:33.206Z,19.18
2022-09-28T21:46:00.612Z,19.16
2022-09-28T21:48:29.376Z,19.15
2022-09-28T21:50:57.006Z,19.16
2022-09-28T21:53:29.092Z,19.18
2022-09-28T21:55:59.253Z,19.16
2022-09-28T21:58:31.144Z,19.16
2022-09-28T22:01:01.933Z,19.16
2022-09-28T22:03:30.273Z,19.13
2022-09-28T22:05:57.726Z,19.14
2022-09-28T22:08:26.829Z,19.13
2022-09-28T22:11:00.924Z,19.12
2022-09-28T22:13:28.426Z,19.10
2022-09-28T22:15:57.797Z,19.06
2022-09-28T22:18:25.791Z,19.00
2022-09-28T22:20:59.348Z,18.98
2022-09-28T22:23:28.347Z,18.96
2022-09-28T22:26:00.533Z,18.91
2022-09-28T22:28:27.875Z,18.90
2022-09-28T22:30:55.504Z,18.84
2022-09-28T22:33:22.823Z,18.82
2022-09-28T22:35:51.327Z,18.80
2022-09-28T22:38:18.702Z,18.75
2022-09-28T22:40:51.250Z,18.65
2022-09-28T22:43:19.010Z,18.62
2022-09-28T22:45:46.498Z,18.60
2022-09-28T22:48:13.966Z,18.61
2022-09-28T22:50:48.621Z,18.58
2022-09-28T22:53:16.086Z,18.54
2022-09-28T22:55:43.816Z,18.52
2022-09-28T22:58:13.594Z,18.49
2022-09-28T23:00:40.818Z,18.48
2022-09-28T23:03:08.067Z,18.45
2022-09-28T23:05:35.301Z,18.43
2022-09-28T23:08:03.267Z,18.41
2022-09-28T23:10:30.847Z,18.41
2022-09-28T23:12:58.463Z,18.38
2022-09-28T23:15:28.639Z,18.34
2022-09-28T23:17:56.028Z,18.34
2022-09-28T23:20:23.811Z,18.32
2022-09-28T23:22:51.218Z,18.30
2022-09-28T23:25:19.298Z,18.26
2022-09-28T23:27:47.035Z,18.27
2022-09-28T23:30:15.564Z,18.24
2022-09-28T23:32:44.543Z,18.23
2022-09-28T23:35:12.422Z,18.17
2022-09-28T23:37:39.615Z,18.12
2022-09-28T23:40:07.329Z,18.10
2022-09-28T23:42:35.495Z,18.04
2022-09-28T23:45:02.966Z,17.99
2022-09-28T23:47:30.366Z,17.95
2022-09-28T23:49:58.924Z,17.90
2022-09-28T23:52:26.149Z,17.88
2022-09-28T23:54:53.248Z,17.87
2022-09-28T23:57:20.719Z,17.86
2022-09-28T23:59:47.896Z,17.83
